createdAt,value
2018-04-17T04:58:51.083Z,10.40
2018-04-17T05:01:22.012Z,9.63
2018-04-17T05:06:26.261Z,9.97
2018-04-17T05:08:55.512Z,10.10
2018-04-17T05:11:26.354Z,10.10
2018-04-17T05:13:55.618Z,10.40
2018-04-17T05:16:23.112Z,11.80
2018-04-17T05:18:51.074Z,9.97
2018-04-17T05:21:19.870Z,11.70
2018-04-17T05:23:48.621Z,11.60
2018-04-17T05:29:19.448Z,11.17
2018-04-17T05:31:47.392Z,11.10
2018-04-17T05:34:22.163Z,11.43
2018-04-17T05:36:59.215Z,11.30
2018-04-17T05:39:36.619Z,10.60
2018-04-17T05:42:04.754Z,11.47
2018-04-17T05:44:32.379Z,11.90
2018-04-17T05:46:59.718Z,13.90
2018-04-17T05:49:46.890Z,11.17
2018-04-17T06:04:33.068Z,12.47
2018-04-17T07:43:29.725Z,10.33
2018-04-17T07:45:56.196Z,11.83
2018-04-17T07:48:34.801Z,11.67
2018-04-17T07:51:01.107Z,11.20
2018-04-17T07:53:27.245Z,11.50
2018-04-17T07:55:54.487Z,10.40
2018-04-17T07:58:20.837Z,11.30
2018-04-17T08:00:47.935Z,10.40
2018-04-17T08:05:47.283Z,10.20
2018-04-17T08:08:15.322Z,12.00
2018-04-17T08:10:44.469Z,11.20
2018-04-17T08:13:11.036Z,11.20
2018-04-17T08:15:37.196Z,10.30
2018-04-17T08:18:03.831Z,10.77
2018-04-17T08:20:29.963Z,10.90
2018-04-17T08:22:56.496Z,11.70
2018-04-17T08:25:22.657Z,10.50
2018-04-17T08:27:48.800Z,10.60
2018-04-17T08:30:15.791Z,11.97
2018-04-17T08:32:42.007Z,11.90
2018-04-17T08:35:08.149Z,13.00
2018-04-17T08:37:34.365Z,11.80
2018-04-17T08:40:00.531Z,11.70
2018-04-17T08:42:26.703Z,11.60
2018-04-17T08:44:53.644Z,11.90
2018-04-17T08:47:20.504Z,11.43
2018-04-17T08:49:46.604Z,11.73
2018-04-17T08:52:12.947Z,11.13
2018-04-17T08:54:39.059Z,12.13
2018-04-17T08:57:05.199Z,11.50
2018-04-17T08:59:31.371Z,10.40
2018-04-17T09:01:57.497Z,11.37
2018-04-17T09:04:23.609Z,10.70
2018-04-17T09:06:50.144Z,10.20
2018-04-17T09:09:16.301Z,10.20
2018-04-17T09:11:42.486Z,10.27
2018-04-17T09:14:09.013Z,10.30
2018-04-17T09:16:35.342Z,9.67
2018-04-17T09:19:01.494Z,9.27
2018-04-17T09:21:27.793Z,9.40
2018-04-17T09:23:54.881Z,9.50
2018-04-17T09:26:21.238Z,9.70
2018-04-17T09:28:47.542Z,11.07
2018-04-17T09:31:13.672Z,10.77
2018-04-17T09:33:40.361Z,10.20
2018-04-17T09:36:07.207Z,10.10
2018-04-17T09:38:34.194Z,11.10
2018-04-17T09:41:01.800Z,10.73
2018-04-17T09:43:29.892Z,10.20
2018-04-17T09:45:58.083Z,9.83
2018-04-17T09:48:28.979Z,8.93
2018-04-17T09:51:00.687Z,8.90
2018-04-17T09:53:30.892Z,9.10
2018-04-17T09:55:58.715Z,8.97
2018-04-17T09:58:26.453Z,9.97
2018-04-17T10:00:59.183Z,9.10
2018-04-17T10:03:36.886Z,9.50
2018-04-17T10:06:03.401Z,11.23
2018-04-17T10:08:31.536Z,11.47
2018-04-17T10:11:02.099Z,11.53
2018-04-17T10:13:30.849Z,11.13
2018-04-17T10:15:58.337Z,11.70
2018-04-17T10:18:25.575Z,10.73
2018-04-17T10:20:57.822Z,13.00
2018-04-17T10:23:25.686Z,11.27
2018-04-17T10:25:52.064Z,14.93
2018-04-17T10:28:19.659Z,13.30
2018-04-17T10:30:47.107Z,12.00
2018-04-17T10:33:18.128Z,11.50
2018-04-17T10:35:46.248Z,10.67
2018-04-17T10:38:12.632Z,13.27
2018-04-17T10:40:41.782Z,13.20
2018-04-17T10:43:08.081Z,11.77
2018-04-17T10:45:34.190Z,9.67
2018-04-17T10:48:02.962Z,10.57
2018-04-17T10:50:30.537Z,9.97
2018-04-17T10:53:00.893Z,11.30
2018-04-17T10:55:27.149Z,10.63
2018-04-17T10:57:53.414Z,7.83
2018-04-17T11:00:19.672Z,7.50
2018-04-17T11:02:45.928Z,9.40
2018-04-17T11:05:12.404Z,7.60
2018-04-17T11:07:38.653Z,6.20
2018-04-17T11:10:05.979Z,5.60
2018-04-17T11:12:32.867Z,7.80
2018-04-17T11:15:01.873Z,8.40
2018-04-17T11:17:28.053Z,9.20
2018-04-17T11:19:55.821Z,7.90
2018-04-17T11:22:22.771Z,8.50
2018-04-17T11:24:49.119Z,6.63
2018-04-17T11:27:15.371Z,6.87
2018-04-17T11:29:44.929Z,7.60
2018-04-17T11:32:11.421Z,7.70
2018-04-17T11:34:38.066Z,10.87
2018-04-17T11:37:04.557Z,10.20
2018-04-17T11:39:30.906Z,10.80
2018-04-17T11:41:58.222Z,10.37
2018-04-17T11:44:24.531Z,11.73
2018-04-17T11:46:51.591Z,9.30
2018-04-17T11:49:17.735Z,8.87
2018-04-17T11:51:43.974Z,10.10
2018-04-17T11:54:10.890Z,8.37
2018-04-17T11:56:37.414Z,9.97
2018-04-17T11:59:03.913Z,10.63
2018-04-17T12:01:31.175Z,10.60
2018-04-17T12:03:57.406Z,8.80
2018-04-17T12:06:23.594Z,10.27
2018-04-17T12:08:50.246Z,9.17
2018-04-17T12:11:17.430Z,10.33
2018-04-17T12:19:51.534Z,12.50
2018-04-17T12:25:26.504Z,10.00
2018-04-17T12:28:23.739Z,9.93
2018-04-17T12:31:25.833Z,10.20
2018-04-17T12:33:57.320Z,9.80
2018-04-17T12:36:37.003Z,9.70
2018-04-17T12:39:03.618Z,10.50
2018-04-17T12:41:34.663Z,9.13
2018-04-17T12:44:14.711Z,9.33
2018-04-17T12:46:42.723Z,8.00
2018-04-17T12:49:12.005Z,8.50
2018-04-17T12:51:38.175Z,8.70
2018-04-17T12:54:06.089Z,9.60
2018-04-17T12:56:36.919Z,11.67
2018-04-17T12:59:13.049Z,9.80
2018-04-17T13:04:13.136Z,8.50
2018-04-17T13:06:39.563Z,11.43
2018-04-17T13:09:06.267Z,10.93
2018-04-17T13:11:41.127Z,10.20
2018-04-17T13:14:10.799Z,10.13
2018-04-17T13:16:38.006Z,12.03
2018-04-17T13:19:07.488Z,11.87
2018-04-17T13:21:35.277Z,10.10
2018-04-17T13:24:04.031Z,12.07
2018-04-17T13:26:42.951Z,12.30
2018-04-17T13:29:22.969Z,11.33
2018-04-17T13:31:51.946Z,10.10
2018-04-17T13:49:33.010Z,12.00
2018-04-17T13:51:59.641Z,10.27
2018-04-17T13:54:34.296Z,11.10
2018-04-17T13:57:02.373Z,11.33
2018-04-17T14:02:30.509Z,9.17
2018-04-17T14:05:12.015Z,8.83
2018-04-17T14:07:42.336Z,11.63
2018-04-17T14:10:14.628Z,8.70
2018-04-17T14:12:42.506Z,9.20
2018-04-17T14:15:15.750Z,9.00
2018-04-17T14:17:42.414Z,8.97
2018-04-17T14:20:08.891Z,8.30
2018-04-17T14:28:42.665Z,10.77
2018-04-17T14:31:18.963Z,10.40
2018-04-17T14:33:50.971Z,9.83
2018-04-17T14:36:20.753Z,10.07
2018-04-17T14:38:47.069Z,11.60
2018-04-17T14:41:13.612Z,10.47
2018-04-17T14:43:41.828Z,10.07
2018-04-17T14:46:09.362Z,10.20
2018-04-17T14:48:35.777Z,7.97
2018-04-17T14:51:04.923Z,8.30
2018-04-17T14:56:10.408Z,8.00
2018-04-17T14:58:41.487Z,6.70
2018-04-17T15:07:32.187Z,6.40
2018-04-17T15:09:58.946Z,6.80
2018-04-17T15:12:28.295Z,6.83
2018-04-17T15:14:54.900Z,6.40
2018-04-17T15:17:23.690Z,7.50
2018-04-17T15:19:57.295Z,7.20
2018-04-17T15:22:30.301Z,9.93
2018-04-17T15:25:02.725Z,7.33
2018-04-17T15:27:30.132Z,6.53
2018-04-17T15:32:33.669Z,7.20
2018-04-17T15:35:02.070Z,8.00
2018-04-17T15:37:43.415Z,6.77
2018-04-17T15:40:13.599Z,5.97
2018-04-17T15:42:43.869Z,5.57
2018-04-17T15:50:35.593Z,5.57
2018-04-17T15:53:03.797Z,6.90
2018-04-17T15:55:41.392Z,6.00
2018-04-17T16:01:25.605Z,5.70
2018-04-17T17:22:37.927Z,4.00
2018-04-17T17:25:05.194Z,4.40
2018-04-17T17:33:41.745Z,4.43
2018-04-17T17:36:10.235Z,5.60
2018-04-17T17:41:34.627Z,3.83
2018-04-17T17:44:11.389Z,3.97
2018-04-17T17:58:50.359Z,3.87
2018-04-17T18:10:48.750Z,3.83
2018-04-17T18:13:22.076Z,3.40
2018-04-17T19:01:57.979Z,23.87
2018-04-17T19:04:24.273Z,17.47
2018-04-17T19:06:51.852Z,19.00
2018-04-17T19:09:18.352Z,21.80
2018-04-17T19:11:44.801Z,19.40
2018-04-17T19:14:11.456Z,16.97
2018-04-17T19:16:37.832Z,14.70
2018-04-17T19:19:08.115Z,13.63
2018-04-17T19:21:34.508Z,12.90
2018-04-17T19:24:02.620Z,11.17
2018-04-17T19:26:29.047Z,11.93
2018-04-17T19:28:55.515Z,11.37
2018-04-17T19:31:22.034Z,10.73
2018-04-17T19:33:48.461Z,12.40
2018-04-17T19:36:19.396Z,10.60
2018-04-17T19:38:49.471Z,8.50
2018-04-17T19:41:18.532Z,10.67
2018-04-17T19:43:48.852Z,10.50
2018-04-17T19:46:18.329Z,9.60
2018-04-17T19:48:48.828Z,9.00
2018-04-17T19:51:19.191Z,7.40
2018-04-17T19:53:49.051Z,10.27
2018-04-17T19:56:19.391Z,9.90
2018-04-17T19:58:50.050Z,8.67
2018-04-17T20:01:21.235Z,6.90
2018-04-17T20:03:51.446Z,7.90
2018-04-17T20:06:18.277Z,7.37
2018-04-17T20:08:47.112Z,7.77
2018-04-17T20:11:16.186Z,8.03
2018-04-17T20:53:33.420Z,9.20
2018-04-17T20:56:07.875Z,9.13
2018-04-17T20:58:34.417Z,9.90
2018-04-17T21:01:22.967Z,9.93
